22:33
Airports
History
Links
Donate
Help keep this website running!
PayPal
Bitcoin
Information on this page is community maintained and may be outdated or inaccurate and is intended for reference only or PC simulator navigating.
Always use approved charts for navigating.
EDNO
Noerdlingen
Noerdlingen (EDNO)
Nördlingen, Bayern, Germany (86720)
(U)
Lat/Lng:48° 52' 21.98" N / 10° 30' 18.99" E
48.872772 / 10.505276
Elevation:1378'ft 420mMSL
ID / ICAO:EDNO
Runways:1
Longest:(04-22) 498.9m 1,637ft Asphalt
Distance To
Airport ID:
Nearby VORs <50NM
Nearby NDBs
Nearby WeatherUpdated 07-25-17 22:20 GMT
Nearby weather at ETSN, NEUBURG located 34.0 nautical miles from EDNO
Altimeter: 29.74
Visibility: 6.2 statute miles
Wind: 12 knots (230°)
Temp: 13°c 55°f
Humidity: 93.6%

METAR: ETSN 252220Z 23012KT 9999 RA FEW010 BKN018 OVC060 13/12 Q1007 WHT

(Powered by phpweather)
Runway 04 / 22
Dimensions:498.9 x 14.9m 1637' x 49'ft
Surface:Asphalt
Runway 04 [A]Runway 22 [B]
Heading:039°TH 219°TH
Lat:
Lng:
48° 52' 15.69"N
10° 30' 11.25"E
48° 52' 28.27"N
10° 30' 26.74"E
User Notes and Comments
Google Map
Nearby Airports
(U) AALEN HEIDENHEIM ELCHINGEN 12.8 NM
EDPA WSW 238°
(U) Giengen Brenz 21.1 NM
EDNG SW 218°
(C) Heubach 26.7 NM
EDTH W 259°
(C) NEUBURG 34.0 NM
ETSN (WX) ESE 109°
(C) Roth 36.0 NM
ETHR (WX) NE 48°
(C) Augsburg 36.6 NM
EDMA (WX) SSE 147°
(U) SCHWABISCH HALL 36.9 NM
EDTY WNW 297°
VFR Chart
Flight Planning at SkyVector.com